Time;durP1;ratioP1;P1;durP2;ratioP2;P2;SDS_P1;SDS_P2;PMS_P1;PMS_P2;Temp;Humidity;BMP_temperature;BMP_pressure;BME280_temperature;BME280_humidity;BME280_pressure;Samples;Min_cycle;Max_cycle;Signal;HPM_P1;HPM_P2
2023/03/11 00:00:01;;;;;;;0.90;0.90;;;;;1.00;94860.00;;;;5052924;28;20245;-59
2023/03/11 00:02:28;;;;;;;0.60;0.60;;;;;0.90;94854.00;;;;5052902;28;20223;-59
2023/03/11 00:04:56;;;;;;;0.70;0.70;;;;;0.80;94856.00;;;;5053137;28;20197;-59
2023/03/11 00:07:23;;;;;;;0.70;0.70;;;;;0.90;94857.00;;;;5052883;28;20195;-59
2023/03/11 00:09:52;;;;;;;0.77;0.77;;;;;1.00;94869.00;;;;5034819;28;20278;-59
2023/03/11 00:12:19;;;;;;;0.77;0.77;;;;;0.80;94878.00;;;;5052618;28;20760;-60
2023/03/11 00:14:47;;;;;;;0.87;0.87;;;;;0.90;94878.00;;;;5052754;28;20194;-60
2023/03/11 00:17:14;;;;;;;0.80;0.80;;;;;0.90;94868.00;;;;5053030;28;20221;-60
2023/03/11 00:19:41;;;;;;;0.90;0.90;;;;;0.90;94864.00;;;;5053432;28;20200;-60
2023/03/11 00:22:09;;;;;;;0.73;0.73;;;;;0.90;94902.00;;;;5052892;28;20216;-59
2023/03/11 00:24:36;;;;;;;0.80;0.80;;;;;0.90;94878.00;;;;5052894;28;20287;-59
2023/03/11 00:27:05;;;;;;;1.17;0.90;;;;;0.90;94876.00;;;;5052606;28;20206;-59
2023/03/11 00:29:33;;;;;;;0.90;0.90;;;;;0.90;94881.00;;;;5052586;28;20250;-59
2023/03/11 00:32:00;;;;;;;0.70;0.70;;;;;1.00;94858.00;;;;5052618;28;20213;-59
2023/03/11 00:34:28;;;;;;;0.60;0.60;;;;;1.00;94870.00;;;;5056993;28;20198;-59
2023/03/11 00:36:55;;;;;;;0.60;0.60;;;;;0.90;94870.00;;;;5056609;28;20540;-60
2023/03/11 00:39:23;;;;;;;0.63;0.63;;;;;0.90;94871.00;;;;5056299;28;20208;-60
2023/03/11 00:41:50;;;;;;;0.70;0.70;;;;;1.00;94867.00;;;;5056384;28;20262;-59
2023/03/11 00:44:19;;;;;;;0.70;0.70;;;;;1.10;94862.00;;;;5056314;28;20195;-59
2023/03/11 00:46:46;;;;;;;0.83;0.80;;;;;1.10;94875.00;;;;5056452;28;20540;-60
2023/03/11 00:49:14;;;;;;;0.73;0.73;;;;;1.00;94878.00;;;;5056145;28;20208;-60
2023/03/11 00:51:42;;;;;;;0.97;0.97;;;;;0.90;94879.00;;;;5056648;28;20229;-60
2023/03/11 00:54:09;;;;;;;0.63;0.63;;;;;0.80;94890.00;;;;5038214;28;20204;-59
2023/03/11 00:56:37;;;;;;;0.70;0.70;;;;;0.90;94889.00;;;;5055998;28;20668;-59
2023/03/11 00:59:04;;;;;;;0.70;0.70;;;;;0.90;94892.00;;;;5038243;28;20293;-59
2023/03/11 01:01:33;;;;;;;0.80;0.80;;;;;0.90;94888.00;;;;5056167;28;20218;-59
2023/03/11 01:04:01;;;;;;;0.93;0.93;;;;;0.90;94881.00;;;;5055974;28;20193;-60
2023/03/11 01:06:28;;;;;;;0.60;0.60;;;;;0.90;94890.00;;;;5056038;28;20551;-59
2023/03/11 01:08:56;;;;;;;0.70;0.70;;;;;0.80;94894.00;;;;5055782;28;20189;-59
2023/03/11 01:11:23;;;;;;;1.40;1.00;;;;;0.80;94891.00;;;;5055675;28;20216;-59
2023/03/11 01:13:51;;;;;;;0.87;0.87;;;;;0.70;94902.00;;;;5055779;28;20200;-59
2023/03/11 01:16:20;;;;;;;0.70;0.70;;;;;0.70;94886.00;;;;5055869;28;20196;-59
2023/03/11 01:18:48;;;;;;;0.60;0.60;;;;;0.80;94897.00;;;;5055932;28;20196;-59
2023/03/11 01:21:16;;;;;;;0.73;0.73;;;;;0.80;94883.00;;;;5055956;28;20216;-59
2023/03/11 01:23:43;;;;;;;0.87;0.87;;;;;0.80;94887.00;;;;5055802;28;20664;-60
2023/03/11 01:26:11;;;;;;;0.67;0.67;;;;;0.70;94893.00;;;;5055723;28;20189;-60
2023/03/11 01:28:38;;;;;;;1.13;0.90;;;;;0.80;94904.00;;;;5055450;28;20193;-60
2023/03/11 01:31:06;;;;;;;0.80;0.80;;;;;0.80;94903.00;;;;5055815;28;20718;-60
2023/03/11 01:33:33;;;;;;;0.80;0.80;;;;;0.70;94906.00;;;;5056067;28;20279;-60
2023/03/11 01:36:02;;;;;;;0.80;0.80;;;;;0.90;94909.00;;;;5055354;28;20686;-60
2023/03/11 01:38:29;;;;;;;0.80;0.80;;;;;0.90;94900.00;;;;5055285;28;20660;-60
2023/03/11 01:40:57;;;;;;;0.60;0.60;;;;;1.00;94898.00;;;;5055578;28;20672;-59
2023/03/11 01:43:49;;;;;;;0.80;0.80;;;;;0.70;94900.00;;;;5055108;28;20734;-59
2023/03/11 01:46:19;;;;;;;1.00;1.00;;;;;0.70;94919.00;;;;5055638;28;20182;-58
2023/03/11 01:48:48;;;;;;;0.97;0.97;;;;;0.90;94900.00;;;;5055273;28;20706;-59
2023/03/11 01:51:23;;;;;;;0.90;0.90;;;;;0.90;94901.00;;;;5055366;28;20679;-60
2023/03/11 01:53:51;;;;;;;0.60;0.60;;;;;0.80;94892.00;;;;5055009;28;20663;-60
2023/03/11 01:56:19;;;;;;;0.83;0.83;;;;;0.90;94895.00;;;;5054923;28;20530;-60
2023/03/11 01:58:48;;;;;;;0.90;0.90;;;;;0.80;94884.00;;;;5055135;28;20197;-60
2023/03/11 02:01:17;;;;;;;0.80;0.80;;;;;0.90;94883.00;;;;5054924;28;20688;-59
2023/03/11 02:03:44;;;;;;;0.70;0.70;;;;;0.90;94884.00;;;;5054827;28;20208;-59
2023/03/11 02:06:14;;;;;;;0.70;0.70;;;;;1.00;94892.00;;;;5054752;28;20197;-59
2023/03/11 02:08:44;;;;;;;0.70;0.70;;;;;0.80;94904.00;;;;5054956;28;20187;-60
2023/03/11 02:11:15;;;;;;;0.60;0.60;;;;;0.80;94911.00;;;;5054575;28;20244;-59
2023/03/11 02:13:45;;;;;;;1.07;0.97;;;;;0.60;94904.00;;;;5054496;28;20199;-59
2023/03/11 02:16:13;;;;;;;0.60;0.60;;;;;0.50;94913.00;;;;5054532;28;20197;-59
2023/03/11 02:18:41;;;;;;;0.83;0.83;;;;;0.60;94915.00;;;;5054500;28;20225;-59
2023/03/11 02:21:18;;;;;;;0.70;0.70;;;;;0.50;94917.00;;;;5054306;28;20700;-59
2023/03/11 02:23:53;;;;;;;0.60;0.60;;;;;0.40;94918.00;;;;5055185;28;20199;-59
2023/03/11 02:26:25;;;;;;;0.60;0.60;;;;;0.30;94921.00;;;;5054575;28;20188;-59
2023/03/11 02:28:55;;;;;;;0.60;0.60;;;;;0.50;94912.00;;;;5054858;28;20640;-59
2023/03/11 02:31:23;;;;;;;0.80;0.80;;;;;0.30;94919.00;;;;5054092;28;20694;-59
2023/03/11 02:33:54;;;;;;;0.70;0.70;;;;;0.20;94907.00;;;;5054788;28;20192;-59
2023/03/11 02:36:36;;;;;;;0.70;0.70;;;;;0.00;94912.00;;;;5054297;28;20188;-59
2023/03/11 02:39:05;;;;;;;0.60;0.60;;;;;0.00;94915.00;;;;5054084;28;20196;-59
2023/03/11 02:41:36;;;;;;;0.60;0.60;;;;;-0.10;94918.00;;;;5054505;28;20681;-59
2023/03/11 02:44:06;;;;;;;0.60;0.60;;;;;-0.10;94919.00;;;;5054787;28;20659;-59
2023/03/11 02:46:34;;;;;;;0.90;0.90;;;;;-0.10;94909.00;;;;5054215;28;20180;-59
2023/03/11 02:49:02;;;;;;;0.60;0.60;;;;;-0.10;94904.00;;;;5053868;28;20198;-59
2023/03/11 02:51:30;;;;;;;0.60;0.60;;;;;-0.10;94901.00;;;;5053676;28;20231;-59
2023/03/11 02:54:03;;;;;;;0.60;0.60;;;;;-0.30;94919.00;;;;5054287;28;20197;-59
2023/03/11 02:56:30;;;;;;;0.60;0.60;;;;;-0.40;94937.00;;;;5053655;28;20238;-59
2023/03/11 02:58:58;;;;;;;2.00;1.53;;;;;-0.40;94931.00;;;;5053615;28;20242;-58
2023/03/11 03:01:26;;;;;;;0.70;0.70;;;;;-0.50;94950.00;;;;5053712;28;20211;-59
2023/03/11 03:03:54;;;;;;;0.70;0.70;;;;;-0.60;94934.00;;;;5053606;28;20219;-58
2023/03/11 03:06:21;;;;;;;1.27;1.17;;;;;-0.50;94926.00;;;;5053841;28;20199;-59
2023/03/11 03:08:49;;;;;;;0.90;0.90;;;;;-0.50;94936.00;;;;5053494;28;20242;-59
2023/03/11 03:11:16;;;;;;;0.70;0.70;;;;;-0.50;94948.00;;;;5053430;28;20224;-59
2023/03/11 03:13:44;;;;;;;0.60;0.60;;;;;-0.60;94937.00;;;;5053672;28;20191;-59
2023/03/11 03:16:11;;;;;;;0.70;0.70;;;;;-0.50;94917.00;;;;5053895;28;20199;-59
2023/03/11 03:18:40;;;;;;;0.97;0.97;;;;;-0.50;94908.00;;;;5054224;28;20211;-59
2023/03/11 03:21:07;;;;;;;0.70;0.70;;;;;-0.60;94916.00;;;;5053205;28;20575;-59
2023/03/11 03:23:36;;;;;;;0.80;0.80;;;;;-0.50;94917.00;;;;5053221;28;20196;-59
2023/03/11 03:26:04;;;;;;;1.53;0.80;;;;;-0.70;94900.00;;;;5053231;28;20195;-59
2023/03/11 03:28:32;;;;;;;0.83;0.83;;;;;-0.70;94917.00;;;;5052984;28;20192;-59
2023/03/11 03:31:05;;;;;;;0.70;0.70;;;;;-0.70;94919.00;;;;5053546;28;20269;-59
2023/03/11 03:33:32;;;;;;;0.80;0.80;;;;;-0.60;94928.00;;;;5035257;28;20184;-59
2023/03/11 03:36:06;;;;;;;0.93;0.93;;;;;-0.70;94947.00;;;;5053269;28;20291;-59
2023/03/11 03:38:33;;;;;;;1.83;1.33;;;;;-0.80;94941.00;;;;5053325;28;20184;-59
2023/03/11 03:41:00;;;;;;;0.70;0.70;;;;;-0.80;94939.00;;;;5052860;28;20188;-59
2023/03/11 03:43:28;;;;;;;0.70;0.70;;;;;-0.60;94939.00;;;;5052954;28;20247;-60
2023/03/11 03:45:59;;;;;;;1.20;1.10;;;;;-0.50;94948.00;;;;5053535;28;20196;-59
2023/03/11 03:48:26;;;;;;;0.70;0.70;;;;;-0.60;94957.00;;;;5053242;28;20192;-59
2023/03/11 03:50:54;;;;;;;0.80;0.80;;;;;-0.60;94966.00;;;;5052947;28;20254;-60
2023/03/11 03:53:23;;;;;;;0.70;0.70;;;;;-0.60;94971.00;;;;5053411;28;20192;-59
2023/03/11 03:55:50;;;;;;;0.80;0.80;;;;;-0.60;94968.00;;;;5052856;28;20202;-59
2023/03/11 03:58:18;;;;;;;0.80;0.80;;;;;-0.60;94966.00;;;;5053108;28;20199;-59
2023/03/11 04:00:45;;;;;;;0.80;0.80;;;;;-0.70;94967.00;;;;5053091;28;20192;-59
2023/03/11 04:03:13;;;;;;;0.70;0.70;;;;;-0.60;94980.00;;;;5053021;28;20601;-59
2023/03/11 04:05:40;;;;;;;0.70;0.70;;;;;-0.70;94986.00;;;;5035633;28;20192;-59
2023/03/11 04:08:07;;;;;;;0.77;0.77;;;;;-0.80;94985.00;;;;5054731;28;20192;-59
2023/03/11 04:10:36;;;;;;;0.60;0.60;;;;;-0.90;94985.00;;;;5056819;28;20196;-59
2023/03/11 04:13:04;;;;;;;1.03;1.03;;;;;-0.80;94978.00;;;;5081103;22;20238;-67
2023/03/11 04:15:31;;;;;;;0.97;0.97;;;;;-0.80;94972.00;;;;5076658;28;20195;-69
2023/03/11 04:17:59;;;;;;;0.60;0.60;;;;;-0.80;94974.00;;;;5075403;28;20199;-69
2023/03/11 04:20:26;;;;;;;0.80;0.80;;;;;-0.90;94981.00;;;;5077096;28;20198;-68
2023/03/11 04:22:53;;;;;;;0.80;0.80;;;;;-1.00;94981.00;;;;5076498;28;20207;-69
2023/03/11 04:25:21;;;;;;;0.60;0.60;;;;;-1.00;94991.00;;;;5076487;28;20191;-69
2023/03/11 04:27:51;;;;;;;0.73;0.73;;;;;-0.90;94988.00;;;;5076985;28;20191;-67
2023/03/11 04:30:18;;;;;;;0.70;0.70;;;;;-0.90;94979.00;;;;5076958;28;20565;-66
2023/03/11 04:32:46;;;;;;;0.70;0.70;;;;;-1.00;94975.00;;;;5076254;28;20281;-69
2023/03/11 04:35:13;;;;;;;0.90;0.90;;;;;-1.10;94971.00;;;;5076231;28;20187;-69
2023/03/11 04:37:40;;;;;;;0.70;0.70;;;;;-1.20;94974.00;;;;5058317;28;20662;-69
2023/03/11 04:40:10;;;;;;;0.83;0.83;;;;;-1.20;94972.00;;;;5076204;28;20266;-69
2023/03/11 04:42:37;;;;;;;0.60;0.60;;;;;-1.10;94978.00;;;;5076945;28;20678;-69
2023/03/11 04:45:08;;;;;;;0.70;0.70;;;;;-1.20;94979.00;;;;5076406;28;20270;-69
2023/03/11 04:47:35;;;;;;;0.77;0.77;;;;;-1.20;94981.00;;;;5076062;28;20202;-69
2023/03/11 04:50:03;;;;;;;0.83;0.83;;;;;-1.00;95000.00;;;;5076127;28;20253;-68
2023/03/11 04:52:30;;;;;;;1.00;0.97;;;;;-1.00;94993.00;;;;5076349;28;20309;-69
2023/03/11 04:54:58;;;;;;;0.70;0.70;;;;;-1.10;94992.00;;;;5075980;28;20195;-68
2023/03/11 04:57:25;;;;;;;0.60;0.60;;;;;-1.20;94990.00;;;;5076108;28;20595;-68
2023/03/11 04:59:53;;;;;;;0.90;0.90;;;;;-1.20;94984.00;;;;5075905;28;20199;-68
2023/03/11 05:02:21;;;;;;;0.67;0.67;;;;;-1.20;94990.00;;;;5076260;28;20204;-68
2023/03/11 05:04:49;;;;;;;0.60;0.60;;;;;-1.10;94994.00;;;;5075781;28;20245;-68
2023/03/11 05:07:16;;;;;;;0.70;0.70;;;;;-1.10;95003.00;;;;5075731;28;20191;-68
2023/03/11 05:09:44;;;;;;;0.80;0.80;;;;;-1.20;95002.00;;;;5076088;28;20269;-68
2023/03/11 05:12:12;;;;;;;1.03;1.03;;;;;-1.20;95001.00;;;;5076082;28;20303;-67
2023/03/11 05:14:40;;;;;;;0.70;0.70;;;;;-1.20;94995.00;;;;5075645;28;20308;-68
2023/03/11 05:17:08;;;;;;;0.70;0.70;;;;;-1.20;94987.00;;;;5075764;28;20642;-68
2023/03/11 05:19:37;;;;;;;0.80;0.80;;;;;-1.30;95000.00;;;;5075017;28;20195;-68
2023/03/11 05:22:06;;;;;;;0.70;0.70;;;;;-1.30;95009.00;;;;5076210;28;20215;-68
2023/03/11 05:24:34;;;;;;;0.63;0.63;;;;;-1.30;95010.00;;;;5075404;28;20599;-68
2023/03/11 05:27:01;;;;;;;0.70;0.70;;;;;-1.30;95011.00;;;;5075412;28;20663;-68
2023/03/11 05:29:29;;;;;;;0.60;0.60;;;;;-1.30;95016.00;;;;5075343;28;20229;-68
2023/03/11 05:31:56;;;;;;;0.90;0.90;;;;;-1.50;95007.00;;;;5075657;28;20752;-67
2023/03/11 05:34:23;;;;;;;1.27;0.90;;;;;-1.40;95016.00;;;;5075355;28;20192;-68
2023/03/11 05:36:52;;;;;;;0.70;0.70;;;;;-1.40;95003.00;;;;5075210;28;20198;-69
2023/03/11 05:39:20;;;;;;;0.90;0.90;;;;;-1.30;95012.00;;;;5075096;28;20206;-68
2023/03/11 05:41:47;;;;;;;0.87;0.87;;;;;-1.30;95011.00;;;;5075608;28;20562;-67
2023/03/11 05:44:14;;;;;;;0.70;0.70;;;;;-1.20;95006.00;;;;5075594;28;20188;-68
2023/03/11 05:46:42;;;;;;;2.47;2.30;;;;;-1.20;95012.00;;;;5075071;28;20191;-68
2023/03/11 05:49:10;;;;;;;0.73;0.73;;;;;-1.20;95001.00;;;;5074988;28;20245;-68
2023/03/11 05:51:37;;;;;;;0.80;0.80;;;;;-1.10;95012.00;;;;5074663;28;20187;-67
2023/03/11 05:54:10;;;;;;;0.70;0.70;;;;;-1.10;95012.00;;;;5075187;28;20712;-68
2023/03/11 05:56:38;;;;;;;0.80;0.80;;;;;-1.10;95031.00;;;;5075037;28;20193;-68
2023/03/11 05:59:05;;;;;;;1.90;1.43;;;;;-1.00;95029.00;;;;5074819;28;20195;-68
2023/03/11 06:01:33;;;;;;;1.53;1.43;;;;;-1.00;95023.00;;;;5075139;28;20253;-68
2023/03/11 06:04:00;;;;;;;2.30;1.07;;;;;-0.90;95014.00;;;;5075265;28;20207;-68
2023/03/11 06:06:28;;;;;;;0.80;0.80;;;;;-0.90;95019.00;;;;5057337;28;20260;-68
2023/03/11 06:08:56;;;;;;;0.97;0.97;;;;;-0.90;95017.00;;;;5075321;28;20234;-68
2023/03/11 06:11:25;;;;;;;0.80;0.80;;;;;-0.90;95017.00;;;;5074481;28;20188;-69
2023/03/11 06:13:54;;;;;;;0.90;0.90;;;;;-0.90;95024.00;;;;5075456;28;20610;-68
2023/03/11 06:16:22;;;;;;;0.83;0.83;;;;;-0.80;95022.00;;;;5074421;28;20195;-69
2023/03/11 06:18:49;;;;;;;0.80;0.80;;;;;-0.80;95021.00;;;;5074318;28;20191;-68
2023/03/11 06:21:19;;;;;;;0.80;0.80;;;;;-0.80;95025.00;;;;5074293;28;20558;-68
2023/03/11 06:23:46;;;;;;;0.60;0.60;;;;;-0.70;95030.00;;;;5074427;28;20700;-68
2023/03/11 06:26:16;;;;;;;0.70;0.70;;;;;-0.70;95037.00;;;;5056158;28;20198;-68
2023/03/11 06:28:45;;;;;;;0.70;0.70;;;;;-0.70;95037.00;;;;5074004;28;20268;-68
2023/03/11 06:31:16;;;;;;;0.80;0.80;;;;;-0.50;95028.00;;;;5073514;28;20550;-68
2023/03/11 06:33:44;;;;;;;0.80;0.80;;;;;-0.30;95038.00;;;;5056720;28;20227;-68
2023/03/11 06:36:14;;;;;;;0.60;0.60;;;;;-0.30;95038.00;;;;5074181;28;20200;-69
2023/03/11 06:38:42;;;;;;;0.77;0.77;;;;;-0.20;95043.00;;;;5073810;28;20584;-68
2023/03/11 06:41:10;;;;;;;0.60;0.60;;;;;-0.20;95046.00;;;;5073781;28;20196;-68
2023/03/11 06:43:37;;;;;;;0.90;0.90;;;;;-0.20;95061.00;;;;5074315;28;20213;-69
2023/03/11 06:46:11;;;;;;;0.60;0.60;;;;;-0.20;95066.00;;;;5073735;28;20211;-69
2023/03/11 06:48:39;;;;;;;0.70;0.70;;;;;-0.10;95078.00;;;;5074015;28;20187;-69
2023/03/11 06:51:07;;;;;;;0.70;0.70;;;;;-0.10;95081.00;;;;5055772;28;20200;-69
2023/03/11 06:53:34;;;;;;;0.60;0.60;;;;;-0.10;95079.00;;;;5073734;28;20227;-68
2023/03/11 06:56:03;;;;;;;0.60;0.60;;;;;0.00;95072.00;;;;5073492;28;20193;-68
2023/03/11 06:58:32;;;;;;;0.70;0.70;;;;;0.00;95061.00;;;;5073474;28;20197;-68
2023/03/11 07:01:07;;;;;;;0.70;0.70;;;;;0.00;95070.00;;;;5073411;28;20604;-68
2023/03/11 07:03:36;;;;;;;0.70;0.70;;;;;-0.10;95071.00;;;;5073490;28;20215;-68
2023/03/11 07:06:03;;;;;;;1.47;1.37;;;;;0.00;95089.00;;;;5073712;28;20242;-68
2023/03/11 07:08:31;;;;;;;0.60;0.60;;;;;-0.20;95084.00;;;;5073638;28;20226;-68
2023/03/11 07:11:05;;;;;;;0.70;0.70;;;;;-0.20;95093.00;;;;5073508;28;20201;-68
2023/03/11 07:13:33;;;;;;;0.90;0.90;;;;;-0.20;95094.00;;;;5073299;28;20223;-68
2023/03/11 07:16:02;;;;;;;0.80;0.80;;;;;-0.10;95081.00;;;;5073486;28;20190;-68
2023/03/11 07:18:29;;;;;;;0.60;0.60;;;;;0.00;95089.00;;;;5073203;28;20242;-68
2023/03/11 07:20:59;;;;;;;1.30;1.30;;;;;0.10;95108.00;;;;5073237;28;20193;-68
2023/03/11 07:23:26;;;;;;;1.03;1.03;;;;;0.10;95108.00;;;;5055230;28;20226;-69
2023/03/11 07:25:54;;;;;;;0.60;0.60;;;;;0.00;95106.00;;;;5073185;28;20198;-69
2023/03/11 07:28:22;;;;;;;0.60;0.60;;;;;-0.10;95101.00;;;;5073149;28;20222;-68
2023/03/11 07:30:49;;;;;;;0.80;0.80;;;;;-0.10;95113.00;;;;5073393;28;20301;-68
2023/03/11 07:33:17;;;;;;;0.73;0.73;;;;;0.10;95113.00;;;;5072995;28;20225;-69
2023/03/11 07:35:45;;;;;;;0.60;0.60;;;;;0.20;95109.00;;;;5055113;28;20194;-69
2023/03/11 07:38:14;;;;;;;0.70;0.70;;;;;0.30;95113.00;;;;5073044;28;20668;-70
2023/03/11 07:40:42;;;;;;;17.50;1.07;;;;;0.50;95118.00;;;;5073366;28;20207;-69
2023/03/11 07:43:09;;;;;;;0.60;0.60;;;;;0.50;95118.00;;;;5073071;28;20217;-67
2023/03/11 07:45:37;;;;;;;0.70;0.70;;;;;0.50;95129.00;;;;5073429;28;20193;-67
2023/03/11 07:48:05;;;;;;;0.80;0.80;;;;;0.70;95123.00;;;;5073262;28;20579;-67
2023/03/11 07:50:32;;;;;;;0.70;0.70;;;;;0.80;95137.00;;;;5072783;28;20198;-68
2023/03/11 07:53:00;;;;;;;0.50;0.50;;;;;1.10;95134.00;;;;5072759;28;20230;-68
2023/03/11 07:55:28;;;;;;;0.80;0.80;;;;;1.10;95139.00;;;;5072769;28;20196;-68
2023/03/11 07:57:56;;;;;;;0.83;0.80;;;;;1.10;95132.00;;;;5072821;28;20198;-68
2023/03/11 08:00:23;;;;;;;0.70;0.70;;;;;1.10;95131.00;;;;5072975;28;20197;-67
2023/03/11 08:02:51;;;;;;;0.70;0.70;;;;;1.10;95129.00;;;;5072818;28;20691;-67
2023/03/11 08:05:19;;;;;;;0.87;0.87;;;;;0.90;95122.00;;;;5072805;28;20205;-67
2023/03/11 08:07:47;;;;;;;0.70;0.70;;;;;0.80;95125.00;;;;5073031;28;20190;-67
2023/03/11 08:10:14;;;;;;;0.70;0.70;;;;;1.10;95139.00;;;;5072667;28;20192;-68
2023/03/11 08:12:43;;;;;;;0.77;0.77;;;;;1.20;95131.00;;;;5072660;28;20222;-67
2023/03/11 08:15:11;;;;;;;0.70;0.70;;;;;1.20;95134.00;;;;5072696;28;20236;-68
2023/03/11 08:17:38;;;;;;;0.80;0.80;;;;;1.30;95132.00;;;;5054646;28;20206;-68
2023/03/11 08:20:08;;;;;;;0.60;0.60;;;;;1.50;95136.00;;;;5072724;28;20596;-68
2023/03/11 08:22:36;;;;;;;0.60;0.60;;;;;1.40;95138.00;;;;5073029;28;20207;-68
2023/03/11 08:25:04;;;;;;;0.70;0.70;;;;;1.50;95143.00;;;;5072579;28;20199;-68
2023/03/11 08:27:31;;;;;;;0.60;0.60;;;;;1.60;95144.00;;;;5072891;28;20221;-68
2023/03/11 08:30:00;;;;;;;1.57;1.27;;;;;1.50;95144.00;;;;5072536;28;20202;-68
2023/03/11 08:32:30;;;;;;;0.77;0.77;;;;;1.40;95131.00;;;;5072370;28;20218;-68
2023/03/11 08:34:57;;;;;;;1.43;1.33;;;;;1.40;95142.00;;;;5072552;28;20299;-67
2023/03/11 08:37:25;;;;;;;6.90;1.00;;;;;1.50;95145.00;;;;5072522;28;20195;-68
2023/03/11 08:39:52;;;;;;;0.60;0.60;;;;;1.70;95155.00;;;;5055363;28;20203;-69
2023/03/11 08:42:20;;;;;;;0.70;0.70;;;;;1.70;95148.00;;;;5072356;28;20218;-69
2023/03/11 08:44:47;;;;;;;0.63;0.63;;;;;2.00;95156.00;;;;5072683;28;20195;-69
2023/03/11 08:47:16;;;;;;;0.70;0.70;;;;;2.10;95151.00;;;;5072382;28;20190;-69
2023/03/11 08:49:43;;;;;;;1.80;1.20;;;;;2.30;95148.00;;;;5072379;28;20194;-70
2023/03/11 08:52:11;;;;;;;0.87;0.87;;;;;2.40;95138.00;;;;5072036;28;20225;-68
2023/03/11 08:54:38;;;;;;;1.70;1.60;;;;;2.60;95147.00;;;;5074700;28;20219;-69
2023/03/11 08:57:06;;;;;;;4.23;3.23;;;;;2.70;95149.00;;;;5076005;28;20210;-69
2023/03/11 08:59:34;;;;;;;0.80;0.80;;;;;2.80;95152.00;;;;5075835;28;20195;-69
2023/03/11 09:02:18;;;;;;;0.60;0.60;;;;;2.90;95151.00;;;;5075628;28;20297;-68
2023/03/11 09:04:45;;;;;;;0.77;0.77;;;;;3.20;95156.00;;;;5075708;28;20291;-68
2023/03/11 09:07:14;;;;;;;0.80;0.80;;;;;3.10;95153.00;;;;5076431;28;20198;-68
2023/03/11 09:09:41;;;;;;;0.60;0.60;;;;;3.10;95163.00;;;;5075975;28;20252;-68
2023/03/11 09:12:12;;;;;;;0.60;0.60;;;;;3.20;95159.00;;;;5075453;28;20227;-68
2023/03/11 09:14:40;;;;;;;1.40;1.10;;;;;3.50;95156.00;;;;5076127;28;20223;-68
2023/03/11 09:17:08;;;;;;;0.50;0.50;;;;;3.60;95162.00;;;;5058007;28;20199;-68
2023/03/11 09:19:37;;;;;;;0.60;0.60;;;;;3.80;95169.00;;;;5075999;28;20195;-68
2023/03/11 09:22:05;;;;;;;0.50;0.50;;;;;4.00;95171.00;;;;5075588;28;20215;-68
2023/03/11 09:24:34;;;;;;;1.40;1.30;;;;;4.10;95164.00;;;;5075471;28;20685;-68
2023/03/11 09:27:02;;;;;;;0.50;0.50;;;;;3.90;95176.00;;;;5075530;28;20215;-68
2023/03/11 09:29:29;;;;;;;0.60;0.60;;;;;3.70;95175.00;;;;5075315;28;20670;-69
2023/03/11 09:31:57;;;;;;;0.53;0.53;;;;;3.70;95174.00;;;;5075318;28;20215;-68
2023/03/11 09:34:24;;;;;;;0.60;0.60;;;;;3.60;95177.00;;;;5075806;28;20219;-70
2023/03/11 09:36:53;;;;;;;0.60;0.60;;;;;3.90;95173.00;;;;5075198;28;20188;-68
2023/03/11 09:39:21;;;;;;;0.60;0.60;;;;;3.40;95170.00;;;;5075219;28;20199;-69
2023/03/11 09:41:54;;;;;;;0.60;0.60;;;;;3.20;95173.00;;;;5075068;28;20226;-68
2023/03/11 09:44:27;;;;;;;0.70;0.70;;;;;3.30;95162.00;;;;5057133;28;20199;-69
2023/03/11 09:47:14;;;;;;;0.63;0.63;;;;;3.70;95164.00;;;;5075118;28;20237;-69
2023/03/11 09:50:04;;;;;;;0.57;0.57;;;;;3.70;95172.00;;;;5075561;28;20190;-69
2023/03/11 09:52:43;;;;;;;0.70;0.70;;;;;3.80;95164.00;;;;5075160;28;20219;-69
2023/03/11 09:55:26;;;;;;;0.60;0.60;;;;;4.20;95168.00;;;;5075343;28;20171;-68
2023/03/11 09:57:56;;;;;;;0.60;0.60;;;;;4.40;95174.00;;;;5074804;28;20207;-68
2023/03/11 10:00:24;;;;;;;0.60;0.60;;;;;4.10;95161.00;;;;5074716;28;20253;-68
2023/03/11 10:02:52;;;;;;;0.70;0.70;;;;;4.60;95156.00;;;;5074583;28;20215;-68
2023/03/11 10:05:24;;;;;;;0.73;0.73;;;;;5.20;95165.00;;;;5055865;28;20717;-68
2023/03/11 10:08:00;;;;;;;0.60;0.60;;;;;5.50;95165.00;;;;5074623;28;20195;-68
2023/03/11 10:10:32;;;;;;;0.70;0.70;;;;;5.60;95165.00;;;;5056661;28;20620;-69
2023/03/11 10:13:05;;;;;;;0.60;0.60;;;;;6.00;95177.00;;;;5074418;28;20574;-68
2023/03/11 10:15:47;;;;;;;0.60;0.60;;;;;5.60;95176.00;;;;5074737;28;20676;-68
2023/03/11 10:18:42;;;;;;;0.93;0.93;;;;;5.60;95177.00;;;;5056575;28;20206;-68
2023/03/11 10:21:18;;;;;;;1.07;0.80;;;;;5.00;95173.00;;;;5074622;28;20659;-68
2023/03/11 10:24:04;;;;;;;0.60;0.60;;;;;4.70;95176.00;;;;5074637;28;20207;-69
2023/03/11 10:26:35;;;;;;;0.50;0.50;;;;;4.50;95174.00;;;;5074447;28;20183;-68
2023/03/11 10:29:12;;;;;;;0.50;0.50;;;;;4.70;95177.00;;;;5074698;28;20180;-69
2023/03/11 10:31:43;;;;;;;0.70;0.70;;;;;4.80;95170.00;;;;5074041;28;20191;-68
2023/03/11 10:34:20;;;;;;;0.67;0.67;;;;;4.50;95172.00;;;;5074298;28;20211;-69
2023/03/11 10:36:56;;;;;;;0.60;0.60;;;;;4.50;95171.00;;;;5056820;28;20219;-69
2023/03/11 10:39:26;;;;;;;0.70;0.70;;;;;4.20;95171.00;;;;5074076;28;20180;-69
2023/03/11 10:41:56;;;;;;;0.70;0.70;;;;;4.50;95160.00;;;;5073776;28;20188;-69
2023/03/11 10:44:29;;;;;;;1.07;1.03;;;;;5.10;95178.00;;;;5074188;28;20685;-68
2023/03/11 10:46:56;;;;;;;0.60;0.60;;;;;4.80;95181.00;;;;5074105;28;20186;-68
2023/03/11 10:49:24;;;;;;;1.87;0.80;;;;;4.20;95170.00;;;;5055888;28;20213;-69
2023/03/11 10:51:53;;;;;;;1.03;0.93;;;;;4.50;95179.00;;;;5073688;28;20191;-69
2023/03/11 10:54:28;;;;;;;0.70;0.70;;;;;4.80;95172.00;;;;5073809;28;20309;-73
2023/03/11 10:56:58;;;;;;;0.80;0.80;;;;;4.90;95159.00;;;;5073893;28;20183;-68
2023/03/11 10:59:29;;;;;;;0.60;0.60;;;;;5.70;95180.00;;;;5055546;28;20206;-68
2023/03/11 11:01:58;;;;;;;0.60;0.60;;;;;5.60;95180.00;;;;5073752;28;20598;-69
2023/03/11 11:04:34;;;;;;;0.67;0.67;;;;;5.30;95182.00;;;;5073700;28;20218;-66
2023/03/11 11:07:22;;;;;;;2.20;1.27;;;;;5.40;95188.00;;;;5074174;28;20187;-70
2023/03/11 11:10:15;;;;;;;0.70;0.70;;;;;5.10;95184.00;;;;5073728;28;20193;-66
2023/03/11 11:12:57;;;;;;;0.80;0.80;;;;;5.20;95187.00;;;;5073154;28;20230;-63
2023/03/11 11:15:28;;;;;;;0.60;0.60;;;;;5.10;95184.00;;;;5073469;28;20215;-66
2023/03/11 11:17:59;;;;;;;0.80;0.80;;;;;5.50;95182.00;;;;5072818;28;20200;-63
2023/03/11 11:20:28;;;;;;;0.50;0.50;;;;;5.70;95167.00;;;;5073241;28;20181;-67
2023/03/11 11:22:58;;;;;;;0.60;0.60;;;;;6.40;95177.00;;;;5073092;28;20211;-66
2023/03/11 11:25:30;;;;;;;0.73;0.73;;;;;6.50;95188.00;;;;5073432;28;20186;-65
2023/03/11 11:28:00;;;;;;;0.60;0.60;;;;;6.80;95164.00;;;;5073277;28;20236;-68
2023/03/11 11:30:28;;;;;;;3.63;2.37;;;;;7.40;95156.00;;;;5072819;28;20195;-65
2023/03/11 11:32:56;;;;;;;0.90;0.90;;;;;7.90;95159.00;;;;5073134;28;20218;-63
2023/03/11 11:35:25;;;;;;;1.03;1.03;;;;;8.10;95184.00;;;;5072859;28;20242;-61
2023/03/11 11:37:55;;;;;;;0.50;0.50;;;;;8.10;95175.00;;;;5072895;28;20199;-64
2023/03/11 11:40:30;;;;;;;0.60;0.60;;;;;7.10;95164.00;;;;5073163;28;20209;-63
2023/03/11 11:43:02;;;;;;;0.60;0.60;;;;;6.90;95166.00;;;;5054927;28;20230;-64
2023/03/11 11:45:40;;;;;;;0.60;0.60;;;;;5.80;95160.00;;;;5055431;28;20190;-65
2023/03/11 11:48:17;;;;;;;0.73;0.73;;;;;5.90;95178.00;;;;5073192;28;20217;-65
2023/03/11 11:50:50;;;;;;;0.60;0.60;;;;;5.70;95180.00;;;;5072818;28;20179;-67
2023/03/11 11:53:28;;;;;;;0.70;0.70;;;;;5.60;95174.00;;;;5072987;28;20703;-67
2023/03/11 11:55:57;;;;;;;0.67;0.67;;;;;6.30;95150.00;;;;5072795;28;20187;-67
2023/03/11 11:58:24;;;;;;;0.60;0.60;;;;;6.70;95142.00;;;;5072778;28;20253;-68
2023/03/11 12:01:04;;;;;;;0.67;0.67;;;;;7.50;95175.00;;;;5072832;28;20187;-68
2023/03/11 12:04:06;;;;;;;0.57;0.57;;;;;6.70;95165.00;;;;5055061;28;20310;-68
2023/03/11 12:06:41;;;;;;;0.70;0.70;;;;;6.70;95163.00;;;;5055052;28;20678;-67
2023/03/11 12:09:23;;;;;;;0.50;0.50;;;;;6.80;95170.00;;;;5073033;28;20186;-68
2023/03/11 12:11:57;;;;;;;0.60;0.60;;;;;6.70;95164.00;;;;5072795;28;20234;-67
2023/03/11 12:14:34;;;;;;;0.90;0.90;;;;;6.30;95150.00;;;;5072854;28;20201;-68
2023/03/11 12:17:04;;;;;;;0.60;0.60;;;;;6.50;95142.00;;;;5072573;28;20184;-68
2023/03/11 12:19:39;;;;;;;0.63;0.63;;;;;6.60;95138.00;;;;5072655;28;20558;-68
2023/03/11 12:22:40;;;;;;;0.83;0.83;;;;;7.00;95147.00;;;;5072840;28;20211;-68
2023/03/11 12:25:32;;;;;;;0.50;0.50;;;;;7.00;95147.00;;;;5058940;28;20218;-68
2023/03/11 12:28:09;;;;;;;0.63;0.63;;;;;6.70;95130.00;;;;5074307;28;20179;-67
2023/03/11 12:30:42;;;;;;;0.60;0.60;;;;;7.30;95105.00;;;;5076424;28;20179;-68
2023/03/11 12:33:17;;;;;;;0.93;0.93;;;;;8.50;95109.00;;;;5076216;28;20277;-67
2023/03/11 12:35:50;;;;;;;0.60;0.60;;;;;9.20;95114.00;;;;5076542;28;20205;-68